< Typhoon 200710 2007 Season Typhoon 200712 >
Typhoon 200711 (NARI)
General InformationTrack Information on Google MapsDetailed Wind InformationAccess Analytics MapList of All Images || NewsDisaster Info.WeblogTrackbackTyphoon FrontResourceGoogle EarthGE AnimationAtom FeedGeoJSON
Detalied Best Track (Time Zone = UTC)
Year Month Day Hour Lat. Long. Pressure (hPa) Wind (kt) Class Image Chart
2007 9 11 12 18.6 138.8 1004 0 2 Image Chart
2007 9 11 18 19.5 137.9 1002 0 2 Image Chart
2007 9 12 00 20.1 137.0 1002 0 2 Image Chart
2007 9 12 06 20.5 136.3 1002 0 2 Image Chart
2007 9 12 12 21.0 135.7 1000 0 2 Image Chart
2007 9 12 18 21.4 134.9 1000 0 2 Image Chart
2007 9 13 00 22.1 134.1 996 35 3 Image Chart
2007 9 13 06 22.7 132.9 990 40 3 Image Chart
2007 9 13 12 23.2 132.0 985 50 4 Image Chart
2007 9 13 18 24.0 130.4 965 70 5 Image Chart
2007 9 14 00 24.4 129.4 960 75 5 Image Chart
2007 9 14 03 24.7 128.7 955 75 5 Image Chart
2007 9 14 06 25.0 128.1 950 80 5 Image Chart
2007 9 14 09 25.4 127.7 945 85 5 Image Chart
2007 9 14 12 25.7 127.2 935 100 5 Image Chart
2007 9 14 15 26.2 126.8 935 100 5 Image Chart
2007 9 14 18 26.7 126.5 940 95 5 Image Chart
2007 9 14 21 27.2 126.3 940 95 5 Image Chart
2007 9 15 00 27.8 126.2 940 95 5 Image Chart
2007 9 15 03 28.4 126.1 940 95 5 Image Chart
2007 9 15 06 29.0 126.1 940 95 5 Image Chart
2007 9 15 09 29.5 126.1 940 95 5 Image Chart
2007 9 15 12 30.0 126.2 945 90 5 Image Chart
2007 9 15 15 30.4 126.2 950 85 5 Image Chart
2007 9 15 18 31.0 126.3 955 80 5 Image Chart
2007 9 15 21 31.6 126.6 960 75 5 Image Chart
2007 9 16 00 32.3 126.7 960 75 5 Image Chart
2007 9 16 03 33.1 126.7 960 75 5 Image Chart
2007 9 16 06 33.9 127.2 965 70 5 Image Chart
2007 9 16 09 34.5 127.5 970 65 5 Image Chart
2007 9 16 12 35.5 128.0 990 45 3 Image Chart
2007 9 16 18 37.2 130.3 1000 35 3 Image Chart
2007 9 17 00 38.0 132.0 1004 0 6 Image Chart
2007 9 17 06 38.6 133.6 1004 0 6 Image Chart
2007 9 17 12 38.9 136.0 1006 0 6 Image Chart
2007 9 17 18 39.2 137.5 1008 0 6 Image Chart
2007 9 18 00 39.0 138.4 1014 0 6 Image Chart
Japan Meteorological Agency Best Track Data | Correction Date : 2007-10-24
< Typhoon 200710 2007 Season Typhoon 200712 >

Help